Time;durP1;ratioP1;P1;durP2;ratioP2;P2;SDS_P1;SDS_P2;PMS_P1;PMS_P2;Temp;Humidity;BMP_temperature;BMP_pressure;BME280_temperature;BME280_humidity;BME280_pressure;Samples;Min_cycle;Max_cycle;Signal;HPM_P1;HPM_P2
2022/12/14 13:56:07;;;;;;;19.08;11.93;;;5.30;99.90;;;;;;5090363;28;20204;-39
2022/12/14 13:58:43;;;;;;;25.42;15.68;;;5.20;99.90;;;;;;5070537;28;20060;-33
2022/12/14 14:01:47;;;;;;;18.88;12.38;;;5.20;99.90;;;;;;5068849;28;20025;-34
2022/12/14 14:04:15;;;;;;;22.13;13.68;;;5.20;99.90;;;;;;5068320;28;20526;-35
2022/12/14 14:06:46;;;;;;;18.50;13.55;;;5.20;99.90;;;;;;5068320;28;20033;-35
2022/12/14 14:09:33;;;;;;;18.30;12.77;;;5.20;99.90;;;;;;5068561;28;20044;-33
2022/12/14 14:12:02;;;;;;;19.17;13.27;;;5.20;99.90;;;;;;5068392;28;20074;-36
2022/12/14 14:14:47;;;;;;;18.75;13.65;;;5.20;99.90;;;;;;5068716;28;20052;-39
2022/12/14 14:17:29;;;;;;;19.15;12.73;;;5.20;99.90;;;;;;5068022;28;20025;-34
2022/12/14 14:19:56;;;;;;;18.00;12.63;;;5.20;99.90;;;;;;5068176;28;20039;-36
2022/12/14 14:22:29;;;;;;;19.58;13.50;;;5.20;99.90;;;;;;5068156;28;20025;-36
2022/12/14 14:25:28;;;;;;;17.50;12.20;;;5.30;99.90;;;;;;5067984;28;20029;-33
2022/12/14 14:27:55;;;;;;;17.10;11.63;;;6.30;99.90;;;;;;5067891;28;20036;-39
2022/12/14 14:30:27;;;;;;;17.27;11.57;;;8.30;99.90;;;;;;5067920;28;20473;-37
2022/12/14 14:32:54;;;;;;;15.65;11.32;;;9.60;99.90;;;;;;5067991;28;20021;-37
2022/12/14 14:35:19;;;;;;;14.90;10.27;;;9.50;99.10;;;;;;5067662;28;20045;-35
2022/12/14 14:37:58;;;;;;;15.27;9.82;;;8.80;99.60;;;;;;5068081;28;20511;-35
2022/12/14 14:40:26;;;;;;;15.52;10.88;;;8.20;99.90;;;;;;5067671;28;20020;-36
2022/12/14 14:42:57;;;;;;;14.73;10.98;;;7.80;99.90;;;;;;5067776;28;20083;-37
2022/12/14 14:45:40;;;;;;;14.70;10.75;;;7.70;99.90;;;;;;5067529;28;20486;-34
2022/12/14 14:48:22;;;;;;;16.65;10.48;;;8.70;99.90;;;;;;5066564;28;20438;-35
2022/12/14 14:50:55;;;;;;;14.30;10.05;;;8.40;99.90;;;;;;5067429;28;20036;-35
2022/12/14 14:53:30;;;;;;;16.20;10.43;;;8.00;99.90;;;;;;5067572;28;20385;-39
2022/12/14 14:55:59;;;;;;;15.00;10.43;;;7.60;99.90;;;;;;5066963;28;20053;-40
2022/12/14 14:58:30;;;;;;;14.98;10.38;;;8.30;99.90;;;;;;5067365;28;20430;-37
2022/12/14 15:01:05;;;;;;;15.88;10.45;;;8.80;99.90;;;;;;5067207;28;20025;-34
2022/12/14 15:03:42;;;;;;;13.07;10.13;;;8.30;99.90;;;;;;5067261;28;20047;-37
2022/12/14 15:06:22;;;;;;;15.70;11.05;;;7.90;99.90;;;;;;5061103;28;20028;-35
2022/12/14 15:08:58;;;;;;;15.00;11.05;;;7.60;99.90;;;;;;5054078;28;20029;-40
2022/12/14 15:11:26;;;;;;;13.80;10.15;;;8.70;99.90;;;;;;5053830;28;20017;-36
2022/12/14 15:14:12;;;;;;;13.32;9.65;;;8.60;99.90;;;;;;5054020;28;20039;-35
2022/12/14 15:16:44;;;;;;;12.20;9.48;;;8.10;99.90;;;;;;5052931;28;20033;-37
2022/12/14 15:19:28;;;;;;;12.98;9.85;;;7.70;99.90;;;;;;5053859;28;20013;-36
2022/12/14 15:22:01;;;;;;;12.52;9.20;;;7.90;99.90;;;;;;5053666;28;20363;-34
2022/12/14 15:24:36;;;;;;;13.38;9.15;;;8.80;99.90;;;;;;5053679;28;20106;-37
2022/12/14 15:27:26;;;;;;;12.27;9.65;;;8.50;99.90;;;;;;5053306;28;20025;-37
2022/12/14 15:29:54;;;;;;;12.07;9.10;;;7.90;99.90;;;;;;5053664;28;20017;-35
2022/12/14 15:32:22;;;;;;;13.23;9.48;;;7.60;99.90;;;;;;5053405;28;20029;-35
2022/12/14 15:34:55;;;;;;;13.90;9.40;;;8.40;99.90;;;;;;5053538;28;20043;-39
2022/12/14 15:37:29;;;;;;;13.52;10.13;;;8.80;99.90;;;;;;5053171;28;20518;-40
2022/12/14 15:40:25;;;;;;;14.13;9.50;;;7.90;99.90;;;;;;5053558;28;20115;-38
2022/12/14 15:42:59;;;;;;;12.73;9.15;;;7.80;99.90;;;;;;5053091;28;20067;-37
2022/12/14 15:45:40;;;;;;;14.23;9.15;;;7.50;99.90;;;;;;5053292;28;20033;-36
2022/12/14 15:48:14;;;;;;;13.50;9.13;;;7.20;99.90;;;;;;5053210;28;20028;-34
2022/12/14 15:50:44;;;;;;;13.23;9.38;;;7.00;99.90;;;;;;5053373;28;20163;-34
2022/12/14 15:53:16;;;;;;;14.13;9.75;;;6.90;99.90;;;;;;5053046;28;20044;-41
2022/12/14 15:55:46;;;;;;;11.95;9.20;;;6.70;99.90;;;;;;5052976;28;20433;-35
2022/12/14 15:58:39;;;;;;;13.30;9.73;;;6.50;99.90;;;;;;5052631;28;20382;-35
2022/12/14 16:01:10;;;;;;;12.30;8.68;;;6.30;99.90;;;;;;5052968;28;20490;-37
2022/12/14 16:03:39;;;;;;;13.07;9.63;;;6.10;99.90;;;;;;5051636;28;20552;-33
2022/12/14 16:06:08;;;;;;;11.98;9.13;;;6.00;99.90;;;;;;5053072;28;20079;-36
2022/12/14 16:08:35;;;;;;;13.35;9.38;;;5.90;99.90;;;;;;5052804;28;20482;-35
2022/12/14 16:11:12;;;;;;;13.70;9.80;;;5.80;99.90;;;;;;5052844;28;20033;-35
2022/12/14 16:13:41;;;;;;;13.82;9.73;;;5.70;99.90;;;;;;5052759;28;20051;-36
2022/12/14 16:16:10;;;;;;;12.32;9.05;;;5.60;99.90;;;;;;5052448;28;20540;-38
2022/12/14 16:18:44;;;;;;;13.68;8.75;;;5.50;99.90;;;;;;5051643;28;20029;-37
2022/12/14 16:21:27;;;;;;;11.98;8.90;;;5.50;99.90;;;;;;5052691;28;20025;-35
2022/12/14 16:23:53;;;;;;;11.55;8.80;;;5.40;99.90;;;;;;5052661;28;20471;-37
2022/12/14 16:26:37;;;;;;;15.55;9.02;;;5.40;99.90;;;;;;5052239;28;20029;-36
2022/12/14 16:29:25;;;;;;;12.60;8.93;;;5.30;99.90;;;;;;5052397;28;20017;-37
2022/12/14 16:32:03;;;;;;;11.50;8.73;;;5.30;99.90;;;;;;5053981;28;20033;-36
2022/12/14 16:34:29;;;;;;;12.05;9.10;;;5.20;99.90;;;;;;5053893;28;20111;-34
2022/12/14 16:37:00;;;;;;;12.45;8.57;;;5.20;99.90;;;;;;5053187;28;20132;-38
2022/12/14 16:39:42;;;;;;;11.75;9.35;;;5.20;99.90;;;;;;5045223;28;20032;-38
2022/12/14 16:42:24;;;;;;;11.98;8.65;;;5.20;99.90;;;;;;5043941;28;20021;-39
2022/12/14 16:44:52;;;;;;;11.52;8.52;;;5.10;99.90;;;;;;5053904;28;20036;-34
2022/12/14 16:47:48;;;;;;;12.40;9.20;;;5.10;99.90;;;;;;5049704;28;20056;-34
2022/12/14 16:50:22;;;;;;;12.27;8.43;;;5.10;99.90;;;;;;5054118;28;20025;-36
2022/12/14 16:52:48;;;;;;;12.10;8.77;;;5.10;99.90;;;;;;5069812;28;20444;-37
2022/12/14 16:55:16;;;;;;;12.52;8.68;;;5.10;99.90;;;;;;5071688;28;20107;-36
2022/12/14 16:57:47;;;;;;;12.40;8.38;;;5.10;99.90;;;;;;5071632;28;20017;-37
2022/12/14 17:00:25;;;;;;;12.00;8.80;;;5.00;99.90;;;;;;5071875;28;20477;-36
2022/12/14 17:02:59;;;;;;;13.20;9.10;;;5.00;99.90;;;;;;5071656;28;20549;-33
2022/12/14 17:05:26;;;;;;;;;;;6.20;99.90;;;;;;5071982;28;20025;-38
2022/12/14 17:07:52;;;;;;;11.95;8.43;;;8.00;99.90;;;;;;5068604;28;20324;-35
2022/12/14 17:10:21;;;;;;;10.63;7.97;;;9.40;99.90;;;;;;5060250;28;20028;-34
2022/12/14 17:12:47;;;;;;;11.95;7.63;;;10.30;99.90;;;;;;5064940;28;20029;-37
2022/12/14 17:15:19;;;;;;;10.23;7.65;;;9.70;99.90;;;;;;5071461;28;20421;-36
2022/12/14 17:17:48;;;;;;;12.57;8.38;;;8.90;99.90;;;;;;5071149;28;20032;-36
2022/12/14 17:20:21;;;;;;;10.50;8.10;;;8.30;99.90;;;;;;5071574;28;20389;-37
2022/12/14 17:22:47;;;;;;;10.87;8.13;;;7.80;99.90;;;;;;5071650;28;20025;-36
2022/12/14 17:25:13;;;;;;;10.55;7.80;;;7.40;99.90;;;;;;5071473;28;20456;-39
2022/12/14 17:27:40;;;;;;;11.38;8.13;;;7.20;99.90;;;;;;5071251;28;20142;-38
2022/12/14 17:30:12;;;;;;;11.93;8.60;;;7.00;99.90;;;;;;5071168;28;20082;-37
2022/12/14 17:32:38;;;;;;;13.07;8.82;;;6.80;99.90;;;;;;5071523;28;20078;-38
2022/12/14 17:35:07;;;;;;;11.52;9.02;;;6.60;99.90;;;;;;5071269;28;20040;-36
2022/12/14 17:37:33;;;;;;;12.20;8.30;;;6.40;99.90;;;;;;5071180;28;20027;-32
2022/12/14 17:39:59;;;;;;;9.90;7.93;;;6.30;99.90;;;;;;5071323;28;20029;-34
2022/12/14 17:42:25;;;;;;;11.05;8.18;;;6.10;99.90;;;;;;5071819;28;20021;-37
2022/12/14 17:44:54;;;;;;;11.05;8.07;;;6.00;99.90;;;;;;5071179;28;20429;-40
2022/12/14 17:47:21;;;;;;;12.13;8.30;;;5.80;99.90;;;;;;5071124;28;20502;-37
2022/12/14 17:49:47;;;;;;;10.85;8.38;;;5.70;99.90;;;;;;5071235;28;20021;-34
2022/12/14 17:52:24;;;;;;;13.15;9.15;;;5.60;99.90;;;;;;5071370;28;20375;-36
2022/12/14 17:54:50;;;;;;;11.15;8.10;;;5.60;99.90;;;;;;5071115;28;20040;-34
2022/12/14 17:57:19;;;;;;;11.73;8.95;;;5.50;99.90;;;;;;5070814;28;20074;-34
2022/12/14 17:59:45;;;;;;;10.88;8.27;;;5.40;99.90;;;;;;5071124;28;20031;-37
2022/12/14 18:02:26;;;;;;;11.98;7.80;;;5.40;99.90;;;;;;5071163;28;20033;-35
2022/12/14 18:04:52;;;;;;;12.48;8.27;;;6.10;99.90;;;;;;5071119;28;20048;-36
2022/12/14 18:07:17;;;;;;;12.27;8.18;;;7.80;99.90;;;;;;5070787;28;20048;-35
2022/12/14 18:09:43;;;;;;;13.15;7.57;;;9.30;99.90;;;;;;5071004;28;20520;-36
2022/12/14 18:12:16;;;;;;;10.85;8.05;;;10.30;99.90;;;;;;5071043;28;20555;-37
2022/12/14 18:14:41;;;;;;;9.98;7.28;;;9.70;99.80;;;;;;5071137;28;20481;-40
2022/12/14 18:17:07;;;;;;;10.00;7.45;;;8.90;99.90;;;;;;5070922;28;20103;-36
2022/12/14 18:19:33;;;;;;;10.57;7.65;;;8.30;99.90;;;;;;5070970;28;20103;-37
2022/12/14 18:21:58;;;;;;;10.77;8.00;;;7.80;99.90;;;;;;5070955;28;20024;-37
2022/12/14 18:24:24;;;;;;;10.35;7.65;;;7.50;99.90;;;;;;5070856;28;20033;-38
2022/12/14 18:26:50;;;;;;;9.98;7.47;;;7.20;99.90;;;;;;5070555;28;20048;-34
2022/12/14 18:29:16;;;;;;;12.52;8.55;;;7.00;99.90;;;;;;5071537;28;20444;-34
2022/12/14 18:31:42;;;;;;;10.48;8.20;;;6.80;99.90;;;;;;5070873;28;20381;-35
2022/12/14 18:34:09;;;;;;;12.45;8.40;;;6.60;99.90;;;;;;5070710;28;20029;-35
2022/12/14 18:36:35;;;;;;;10.73;7.60;;;6.50;99.90;;;;;;5070496;28;20031;-38
2022/12/14 18:39:01;;;;;;;11.70;8.43;;;6.30;99.90;;;;;;5070651;28;20103;-37
2022/12/14 18:41:28;;;;;;;12.80;8.93;;;6.10;99.90;;;;;;5072305;28;20017;-35
2022/12/14 18:43:54;;;;;;;10.32;8.10;;;5.90;99.90;;;;;;5074513;28;20024;-38
2022/12/14 18:46:20;;;;;;;10.55;8.55;;;5.80;99.90;;;;;;5074069;28;20481;-38
2022/12/14 18:48:46;;;;;;;12.80;7.97;;;5.70;99.90;;;;;;5074330;28;20063;-37
2022/12/14 18:51:22;;;;;;;12.77;8.85;;;5.60;99.90;;;;;;5074403;28;20017;-37
2022/12/14 18:53:55;;;;;;;11.10;8.10;;;5.60;99.90;;;;;;5074188;28;20504;-37
2022/12/14 18:56:22;;;;;;;11.80;8.52;;;5.50;99.90;;;;;;5074130;28;20056;-38
2022/12/14 18:58:48;;;;;;;11.40;7.90;;;5.40;99.90;;;;;;5074291;28;20104;-38
2022/12/14 19:01:17;;;;;;;11.00;8.30;;;5.40;99.90;;;;;;5074669;28;20024;-35
2022/12/14 19:03:43;;;;;;;10.85;7.85;;;5.50;99.90;;;;;;5074065;28;20021;-36
2022/12/14 19:06:11;;;;;;;10.80;8.00;;;7.00;99.90;;;;;;5073648;28;20078;-35
2022/12/14 19:08:38;;;;;;;9.07;7.03;;;9.10;99.90;;;;;;5074262;28;20031;-33
2022/12/14 19:11:31;;;;;;;11.63;8.15;;;9.90;99.90;;;;;;5074078;28;20066;-38
2022/12/14 19:13:57;;;;;;;10.88;8.05;;;9.90;99.70;;;;;;5069542;28;20090;-35
2022/12/14 19:16:23;;;;;;;10.60;7.93;;;9.20;99.90;;;;;;5073672;28;20482;-37
2022/12/14 19:18:49;;;;;;;13.02;8.70;;;8.50;99.90;;;;;;5074496;28;20462;-37
2022/12/14 19:21:16;;;;;;;12.88;8.85;;;8.00;99.90;;;;;;5073835;28;20027;-36
2022/12/14 19:23:42;;;;;;;11.05;7.80;;;7.60;99.90;;;;;;5073862;28;20013;-37
2022/12/14 19:26:09;;;;;;;12.35;8.55;;;7.30;99.90;;;;;;5073551;28;20470;-33
2022/12/14 19:28:34;;;;;;;12.70;8.63;;;7.00;99.90;;;;;;5073801;28;20036;-39
2022/12/14 19:31:00;;;;;;;12.00;8.32;;;6.80;99.90;;;;;;5073477;28;20397;-38
2022/12/14 19:33:26;;;;;;;12.70;8.75;;;6.70;99.90;;;;;;5073860;28;20024;-38
2022/12/14 19:35:52;;;;;;;12.52;8.98;;;6.50;99.90;;;;;;5073251;28;20504;-37
2022/12/14 19:38:18;;;;;;;12.73;8.60;;;6.40;99.90;;;;;;5073497;28;20370;-36
2022/12/14 19:40:55;;;;;;;11.55;8.60;;;6.20;99.90;;;;;;5073506;28;20017;-36
2022/12/14 19:43:21;;;;;;;13.48;8.57;;;6.00;99.90;;;;;;5073452;28;20111;-38
2022/12/14 19:45:47;;;;;;;13.95;9.45;;;5.90;99.90;;;;;;5073088;28;20104;-37
2022/12/14 19:48:12;;;;;;;13.50;9.18;;;5.70;99.90;;;;;;5073367;28;20043;-38
2022/12/14 19:50:38;;;;;;;11.90;8.60;;;5.70;99.90;;;;;;5073338;28;20392;-36
2022/12/14 19:53:03;;;;;;;11.55;9.38;;;5.60;99.90;;;;;;5073431;28;20025;-39
2022/12/14 19:55:29;;;;;;;14.48;9.80;;;5.50;99.90;;;;;;5072995;28;20028;-35
2022/12/14 19:57:55;;;;;;;14.35;9.80;;;5.40;99.90;;;;;;5073005;28;20070;-37
2022/12/14 20:00:20;;;;;;;13.75;9.90;;;5.40;99.90;;;;;;5072954;28;20048;-38
2022/12/14 20:02:46;;;;;;;13.18;9.80;;;5.30;99.90;;;;;;5073176;28;20082;-37
2022/12/14 20:05:11;;;;;;;12.93;9.25;;;6.20;99.90;;;;;;5072942;28;20033;-35
2022/12/14 20:07:39;;;;;;;12.38;8.98;;;7.90;99.90;;;;;;5072811;28;20059;-37
2022/12/14 20:10:05;;;;;;;13.43;9.68;;;9.40;99.90;;;;;;5072931;28;20048;-36
2022/12/14 20:12:33;;;;;;;14.00;9.88;;;10.20;99.90;;;;;;5072801;28;20043;-34
2022/12/14 20:14:58;;;;;;;12.63;8.68;;;9.60;99.90;;;;;;5072656;28;20036;-39
2022/12/14 20:17:24;;;;;;;27.40;18.17;;;8.90;99.90;;;;;;5072633;28;20024;-42
2022/12/14 20:19:52;;;;;;;28.00;17.80;;;8.20;98.40;;;;;;5072662;28;20025;-40
2022/12/14 20:22:18;;;;;;;25.75;17.40;;;7.30;99.40;;;;;;5072981;28;20021;-42
2022/12/14 20:24:47;;;;;;;27.58;18.48;;;6.80;99.90;;;;;;5072662;28;20413;-41
2022/12/14 20:27:13;;;;;;;24.85;17.45;;;6.50;99.90;;;;;;5072251;28;20025;-42
2022/12/14 20:29:40;;;;;;;27.67;17.65;;;6.20;99.90;;;;;;5072468;28;20392;-42
2022/12/14 20:32:06;;;;;;;26.75;17.13;;;6.10;99.90;;;;;;5072686;28;20025;-42
2022/12/14 20:34:32;;;;;;;24.05;16.83;;;6.00;99.90;;;;;;5072386;28;20036;-42
2022/12/14 20:36:58;;;;;;;25.55;17.95;;;5.80;99.90;;;;;;5072179;28;20040;-42
2022/12/14 20:39:24;;;;;;;25.30;17.08;;;5.80;99.90;;;;;;5072437;28;20288;-40
2022/12/14 20:41:49;;;;;;;28.13;17.58;;;5.60;99.90;;;;;;5072189;28;20028;-42
2022/12/14 20:44:15;;;;;;;23.73;16.15;;;5.50;99.90;;;;;;5072278;28;20419;-42
2022/12/14 20:46:44;;;;;;;26.13;18.00;;;5.40;99.90;;;;;;5071886;28;20501;-41
2022/12/14 20:49:12;;;;;;;23.48;16.45;;;5.30;99.90;;;;;;5072167;28;20021;-43
2022/12/14 20:51:39;;;;;;;26.05;17.20;;;5.30;99.90;;;;;;5072250;28;20444;-42
2022/12/14 20:54:06;;;;;;;24.00;16.65;;;5.30;99.90;;;;;;5071930;28;20551;-42
2022/12/14 20:56:34;;;;;;;23.52;16.30;;;5.20;99.90;;;;;;5071627;28;20029;-42
2022/12/14 20:59:00;;;;;;;25.98;16.42;;;5.20;99.90;;;;;;5072227;28;20032;-42
2022/12/14 21:01:26;;;;;;;23.33;15.27;;;5.10;99.90;;;;;;5071921;28;20016;-42
2022/12/14 21:03:52;;;;;;;25.67;17.95;;;5.40;99.90;;;;;;5071509;28;20031;-41
2022/12/14 21:06:21;;;;;;;23.63;16.05;;;6.80;99.90;;;;;;5071983;28;20024;-41
2022/12/14 21:09:08;;;;;;;22.00;16.48;;;8.60;99.90;;;;;;5071808;28;20508;-42
2022/12/14 21:14:22;;;;;;;33.20;20.58;;;7.60;98.10;;;;;;5071685;28;20048;-37
2022/12/14 21:16:47;;;;;;;31.33;20.35;;;6.80;99.90;;;;;;5071271;28;20021;-40
2022/12/14 21:19:13;;;;;;;30.13;19.77;;;6.40;99.90;;;;;;5071544;28;20474;-36
2022/12/14 21:21:40;;;;;;;31.38;21.10;;;6.10;99.90;;;;;;5071842;28;20032;-34
2022/12/14 21:24:10;;;;;;;29.45;20.05;;;5.90;99.90;;;;;;5071647;28;20314;-39
2022/12/14 21:26:38;;;;;;;33.20;20.30;;;5.70;99.90;;;;;;5071179;28;20052;-41
2022/12/14 21:29:04;;;;;;;31.38;20.27;;;5.60;99.90;;;;;;5071571;28;20046;-40
2022/12/14 21:31:30;;;;;;;30.70;19.55;;;5.40;99.90;;;;;;5071439;28;20028;-37
2022/12/14 21:33:56;;;;;;;29.60;20.45;;;5.30;99.90;;;;;;5071243;28;20028;-38
2022/12/14 21:36:22;;;;;;;30.30;20.60;;;5.20;99.90;;;;;;5071105;28;20133;-40
2022/12/14 21:38:47;;;;;;;26.70;18.65;;;5.10;99.90;;;;;;5071385;28;20024;-37
2022/12/14 21:43:58;;;;;;;29.35;19.58;;;5.00;99.90;;;;;;5071443;28;20031;-40
2022/12/14 21:46:24;;;;;;;28.73;19.05;;;4.90;99.90;;;;;;5070857;28;20106;-37
2022/12/14 21:48:49;;;;;;;27.33;18.48;;;4.90;99.90;;;;;;5071297;28;20054;-41
2022/12/14 21:51:17;;;;;;;27.92;19.02;;;4.90;99.90;;;;;;5071258;28;20378;-37
2022/12/14 21:54:00;;;;;;;26.20;18.00;;;4.80;99.90;;;;;;5071242;28;20024;-41
2022/12/14 21:59:23;;;;;;;26.23;18.45;;;4.70;99.90;;;;;;5071433;28;20040;-38
2022/12/14 22:01:49;;;;;;;27.35;18.25;;;4.70;99.90;;;;;;5071178;28;20048;-41
2022/12/14 22:04:15;;;;;;;25.60;17.20;;;5.10;99.90;;;;;;5071144;28;20052;-37
2022/12/14 22:06:40;;;;;;;25.15;16.88;;;6.70;99.90;;;;;;5071291;28;20017;-39
2022/12/14 22:09:06;;;;;;;24.08;16.50;;;9.00;99.90;;;;;;5071152;28;20385;-40
2022/12/14 22:11:32;;;;;;;23.52;16.23;;;9.30;99.90;;;;;;5070917;28;20580;-39
2022/12/14 22:14:01;;;;;;;23.95;16.48;;;9.60;99.90;;;;;;5070949;28;20024;-37
2022/12/14 22:16:28;;;;;;;22.38;15.90;;;8.80;99.90;;;;;;5072140;28;20474;-38
2022/12/14 22:18:54;;;;;;;22.30;16.02;;;8.10;99.90;;;;;;5075065;28;20099;-35
2022/12/14 22:21:19;;;;;;;23.25;16.35;;;7.50;99.90;;;;;;5075043;28;20550;-38
2022/12/14 22:23:45;;;;;;;23.58;16.58;;;7.00;99.90;;;;;;5075477;28;20021;-36
2022/12/14 22:26:10;;;;;;;23.27;14.85;;;6.70;99.90;;;;;;5074453;28;20549;-37
2022/12/14 22:28:36;;;;;;;21.05;14.80;;;6.40;99.90;;;;;;5074584;28;20063;-41
2022/12/14 22:31:02;;;;;;;23.27;15.93;;;6.20;99.90;;;;;;5074776;28;20020;-39
2022/12/14 22:33:29;;;;;;;24.08;15.75;;;6.10;99.90;;;;;;5075014;28;20323;-38
2022/12/14 22:35:55;;;;;;;26.77;16.60;;;5.90;99.90;;;;;;5073078;28;20051;-37
2022/12/14 22:38:21;;;;;;;21.83;15.48;;;5.80;99.90;;;;;;5074686;28;20486;-36
2022/12/14 22:40:47;;;;;;;23.67;16.00;;;5.60;99.90;;;;;;5074639;28;20029;-39
2022/12/14 22:43:13;;;;;;;23.80;15.52;;;5.50;99.90;;;;;;5073114;28;20027;-39
2022/12/14 22:45:38;;;;;;;20.58;15.00;;;5.40;99.90;;;;;;5074482;28;20103;-39
2022/12/14 22:48:04;;;;;;;22.92;16.05;;;5.20;99.90;;;;;;5074349;28;20067;-38
2022/12/14 22:50:31;;;;;;;23.42;15.98;;;5.20;99.90;;;;;;5074645;28;20139;-37
2022/12/14 22:52:57;;;;;;;22.52;15.05;;;5.10;99.90;;;;;;5074404;28;20032;-39
2022/12/14 22:55:29;;;;;;;23.35;15.80;;;5.10;99.90;;;;;;5074084;28;20037;-39
2022/12/14 22:57:55;;;;;;;22.92;15.70;;;5.00;99.90;;;;;;5073944;28;20020;-39
2022/12/14 23:00:21;;;;;;;22.27;15.45;;;5.00;99.90;;;;;;5074301;28;20112;-41
2022/12/14 23:02:48;;;;;;;22.65;15.48;;;4.90;99.90;;;;;;5074208;28;20056;-41
2022/12/14 23:05:14;;;;;;;22.48;14.65;;;5.90;99.90;;;;;;5074085;28;20033;-37
2022/12/14 23:07:39;;;;;;;21.20;14.07;;;7.60;99.90;;;;;;5073909;28;20031;-36
